createdAt,value
2018-05-26T00:00:27.877Z,0.00
2018-05-26T00:01:27.805Z,0.00
2018-05-26T00:02:27.727Z,0.00
2018-05-26T00:03:27.641Z,0.00
2018-05-26T00:04:27.567Z,0.00
2018-05-26T00:05:27.492Z,0.00
2018-05-26T00:06:27.423Z,0.00
2018-05-26T00:07:27.328Z,0.00
2018-05-26T00:08:27.254Z,0.00
2018-05-26T00:09:27.178Z,0.00
2018-05-26T00:10:27.104Z,0.00
2018-05-26T00:11:27.018Z,0.00
2018-05-26T00:12:26.942Z,0.00
2018-05-26T00:13:26.867Z,0.00
2018-05-26T00:14:26.796Z,0.00
2018-05-26T00:15:26.705Z,0.00
2018-05-26T00:16:26.632Z,0.00
2018-05-26T00:17:26.555Z,0.00
2018-05-26T00:18:26.493Z,0.00
2018-05-26T00:19:26.394Z,0.00
2018-05-26T00:20:26.317Z,0.00
2018-05-26T00:21:26.243Z,0.00
2018-05-26T00:22:26.168Z,0.00
2018-05-26T00:23:26.081Z,0.00
2018-05-26T00:24:26.006Z,0.00
2018-05-26T00:25:25.968Z,0.00
2018-05-26T00:26:25.855Z,0.00
2018-05-26T00:27:25.782Z,0.00
2018-05-26T00:28:25.694Z,0.00
2018-05-26T00:29:25.663Z,0.00
2018-05-26T00:30:25.543Z,0.00
2018-05-26T00:31:25.457Z,0.00
2018-05-26T00:32:25.380Z,0.00
2018-05-26T00:33:25.306Z,0.00
2018-05-26T00:34:25.230Z,0.00
2018-05-26T00:35:25.156Z,0.00
2018-05-26T00:36:25.070Z,0.00
2018-05-26T00:37:24.994Z,0.00
2018-05-26T00:38:24.920Z,0.00
2018-05-26T00:39:24.845Z,0.00
2018-05-26T00:40:24.759Z,0.00
2018-05-26T00:41:24.684Z,0.00
2018-05-26T00:42:24.607Z,0.00
2018-05-26T00:43:24.532Z,0.00
2018-05-26T00:44:24.457Z,0.00
2018-05-26T00:45:24.370Z,0.00
2018-05-26T00:46:24.296Z,0.00
2018-05-26T00:47:24.219Z,0.00
2018-05-26T00:48:24.132Z,0.00
2018-05-26T00:49:24.058Z,0.00
2018-05-26T00:50:23.996Z,0.00
2018-05-26T00:51:23.907Z,0.00
2018-05-26T00:52:23.821Z,0.00
2018-05-26T00:53:23.746Z,0.00
2018-05-26T00:54:23.672Z,0.00
2018-05-26T00:55:23.598Z,0.00
2018-05-26T00:56:23.508Z,0.00
2018-05-26T00:57:23.433Z,0.00
2018-05-26T00:58:23.358Z,0.00
2018-05-26T00:59:23.298Z,0.00
2018-05-26T01:00:23.198Z,0.00
2018-05-26T01:01:23.122Z,0.00
2018-05-26T01:02:23.047Z,0.00
2018-05-26T01:03:22.972Z,0.00
2018-05-26T01:04:22.896Z,0.00
2018-05-26T01:05:22.809Z,0.00
2018-05-26T01:06:22.747Z,0.00
2018-05-26T01:07:22.659Z,0.00
2018-05-26T01:08:22.585Z,0.00
2018-05-26T01:09:22.497Z,0.00
2018-05-26T01:10:22.422Z,0.00
2018-05-26T01:11:22.347Z,0.00
2018-05-26T01:12:22.261Z,0.00
2018-05-26T01:13:22.184Z,0.00
2018-05-26T01:14:22.118Z,0.00
2018-05-26T01:15:22.037Z,0.00
2018-05-26T01:16:21.962Z,0.00
2018-05-26T01:17:21.873Z,0.00
2018-05-26T01:18:21.799Z,0.00
2018-05-26T01:19:21.724Z,0.00
2018-05-26T01:20:21.637Z,0.00
2018-05-26T01:21:21.561Z,0.00
2018-05-26T01:22:21.486Z,0.00
2018-05-26T01:23:21.411Z,0.00
2018-05-26T01:24:21.325Z,0.00
2018-05-26T01:25:21.250Z,0.00
2018-05-26T01:26:21.174Z,0.00
2018-05-26T01:27:21.100Z,0.00
2018-05-26T01:28:21.012Z,0.00
2018-05-26T01:29:20.936Z,0.00
2018-05-26T01:30:20.863Z,0.00
2018-05-26T01:31:20.790Z,0.00
2018-05-26T01:32:20.701Z,0.00
2018-05-26T01:33:20.625Z,0.00
2018-05-26T01:34:20.551Z,0.00
2018-05-26T01:35:20.476Z,0.00
2018-05-26T01:36:20.388Z,0.00
2018-05-26T01:37:20.312Z,0.00
2018-05-26T01:38:20.237Z,0.00
2018-05-26T01:39:20.163Z,0.00
2018-05-26T01:40:20.077Z,0.00
2018-05-26T01:41:20.002Z,0.00
2018-05-26T01:42:19.939Z,0.00
2018-05-26T01:43:19.839Z,0.00
2018-05-26T01:44:19.763Z,0.00
2018-05-26T01:45:19.702Z,0.00
2018-05-26T01:46:19.660Z,0.00
2018-05-26T01:47:19.531Z,0.00
2018-05-26T01:48:19.451Z,0.00
2018-05-26T01:49:19.378Z,0.00
2018-05-26T01:50:19.301Z,0.00
2018-05-26T01:51:19.214Z,0.00
2018-05-26T01:52:19.141Z,0.00
2018-05-26T01:53:19.064Z,0.00
2018-05-26T01:54:18.977Z,0.00
2018-05-26T01:55:18.902Z,0.00
2018-05-26T01:56:18.828Z,0.00
2018-05-26T01:57:18.752Z,0.00
2018-05-26T01:58:18.665Z,0.00
2018-05-26T01:59:18.602Z,0.00
2018-05-26T02:00:18.515Z,0.00
2018-05-26T02:01:18.430Z,0.00
2018-05-26T02:02:18.353Z,0.00
2018-05-26T02:03:18.279Z,0.00
2018-05-26T02:04:18.203Z,0.00
2018-05-26T02:05:18.115Z,0.00
2018-05-26T02:06:18.040Z,0.00
2018-05-26T02:07:17.965Z,0.00
2018-05-26T02:08:17.879Z,0.00
2018-05-26T02:09:17.803Z,0.00
2018-05-26T02:10:17.729Z,0.00
2018-05-26T02:11:17.641Z,0.00
2018-05-26T02:12:17.565Z,0.00
2018-05-26T02:13:17.493Z,0.00
2018-05-26T02:14:17.416Z,0.00
2018-05-26T02:15:17.330Z,0.00
2018-05-26T02:16:17.255Z,0.00
2018-05-26T02:17:17.181Z,0.00
2018-05-26T02:18:17.092Z,0.00
2018-05-26T02:19:17.017Z,0.00
2018-05-26T02:20:16.942Z,0.00
2018-05-26T02:21:16.855Z,4.00
2018-05-26T02:22:16.785Z,4.00
2018-05-26T02:23:16.705Z,4.00
2018-05-26T02:24:16.617Z,4.00
2018-05-26T02:25:16.556Z,0.00
2018-05-26T02:26:16.467Z,4.00
2018-05-26T02:27:16.392Z,4.00
2018-05-26T02:28:16.306Z,8.00
2018-05-26T02:29:16.231Z,4.00
2018-05-26T02:30:16.160Z,8.00
2018-05-26T02:31:16.069Z,4.00
2018-05-26T02:32:15.993Z,8.00
2018-05-26T02:33:15.918Z,8.00
2018-05-26T02:34:15.831Z,12.00
2018-05-26T02:35:15.757Z,12.00
2018-05-26T02:36:15.683Z,12.00
2018-05-26T02:37:15.595Z,12.00
2018-05-26T02:38:15.519Z,20.00
2018-05-26T02:39:15.444Z,20.00
2018-05-26T02:40:15.357Z,20.00
2018-05-26T02:41:15.287Z,24.00
2018-05-26T02:42:15.218Z,28.00
2018-05-26T02:43:15.132Z,28.00
2018-05-26T02:44:15.044Z,32.00
2018-05-26T02:45:14.970Z,32.00
2018-05-26T02:46:14.894Z,40.00
2018-05-26T02:47:14.809Z,40.00
2018-05-26T02:48:14.737Z,48.00
2018-05-26T02:49:14.658Z,52.00
2018-05-26T02:50:14.570Z,56.00
2018-05-26T02:51:14.494Z,60.00
2018-05-26T02:52:14.437Z,68.00
2018-05-26T02:53:14.333Z,76.00
2018-05-26T02:54:14.259Z,76.00
2018-05-26T02:55:14.184Z,84.00
2018-05-26T02:56:14.095Z,96.00
2018-05-26T02:57:14.020Z,100.00
2018-05-26T02:58:13.949Z,104.00
2018-05-26T02:59:13.869Z,112.00
2018-05-26T03:00:13.784Z,120.00
2018-05-26T03:01:13.711Z,132.00
2018-05-26T03:02:13.622Z,140.00
2018-05-26T03:03:13.546Z,152.00
2018-05-26T03:04:13.471Z,164.00
2018-05-26T03:05:13.386Z,172.00
2018-05-26T03:06:13.309Z,184.00
2018-05-26T03:07:13.235Z,196.00
2018-05-26T03:08:13.148Z,204.00
2018-05-26T03:09:13.085Z,220.00
2018-05-26T03:10:12.997Z,232.00
2018-05-26T03:11:12.923Z,244.00
2018-05-26T03:12:12.835Z,256.00
2018-05-26T03:13:12.761Z,272.00
2018-05-26T03:14:12.689Z,284.00
2018-05-26T03:15:12.598Z,296.00
2018-05-26T03:16:12.542Z,308.00
2018-05-26T03:17:12.448Z,324.00
2018-05-26T03:18:12.361Z,336.00
2018-05-26T03:19:12.285Z,352.00
2018-05-26T03:20:12.211Z,368.00
2018-05-26T03:21:12.123Z,380.00
2018-05-26T03:22:12.048Z,396.00
2018-05-26T03:23:11.975Z,412.00
2018-05-26T03:24:11.886Z,428.00
2018-05-26T03:25:11.813Z,444.00
2018-05-26T03:26:11.737Z,460.00
2018-05-26T03:27:11.649Z,476.00
2018-05-26T03:28:11.588Z,488.00
2018-05-26T03:29:11.499Z,508.00
2018-05-26T03:30:11.413Z,524.00
2018-05-26T03:31:11.351Z,544.00
2018-05-26T03:32:11.263Z,560.00
2018-05-26T03:33:11.191Z,580.00
2018-05-26T03:34:11.099Z,596.00
2018-05-26T03:35:11.025Z,616.00
2018-05-26T03:36:10.949Z,632.00
2018-05-26T03:37:10.863Z,648.00
2018-05-26T03:38:10.788Z,664.00
2018-05-26T03:39:10.716Z,684.00
2018-05-26T03:40:10.639Z,696.00
2018-05-26T03:41:10.550Z,716.00
2018-05-26T03:42:10.474Z,732.00
2018-05-26T03:43:10.388Z,748.00
2018-05-26T03:44:10.314Z,760.00
2018-05-26T03:45:10.239Z,776.00
2018-05-26T03:46:10.151Z,788.00
2018-05-26T03:47:10.075Z,804.00
2018-05-26T03:48:10.006Z,820.00
2018-05-26T03:49:09.914Z,836.00
2018-05-26T03:50:09.839Z,852.00
2018-05-26T03:51:09.764Z,868.00
2018-05-26T03:52:09.677Z,884.00
2018-05-26T03:53:09.601Z,904.00
2018-05-26T03:54:09.528Z,928.00
2018-05-26T03:55:09.452Z,944.00
2018-05-26T03:56:09.364Z,964.00
2018-05-26T03:57:09.290Z,984.00
2018-05-26T03:58:09.215Z,1000.00
2018-05-26T03:59:09.127Z,1020.00
2018-05-26T04:00:09.052Z,1040.00
2018-05-26T04:01:08.977Z,1056.00
2018-05-26T04:02:08.890Z,1072.00
2018-05-26T04:03:08.815Z,1088.00
2018-05-26T04:04:08.744Z,1112.00
2018-05-26T04:05:08.665Z,1128.00
2018-05-26T04:06:08.583Z,1148.00
2018-05-26T04:07:08.503Z,1160.00
2018-05-26T04:08:08.429Z,1176.00
2018-05-26T04:09:08.341Z,1188.00
2018-05-26T04:10:08.268Z,1200.00
2018-05-26T04:11:08.191Z,1216.00
2018-05-26T04:12:08.103Z,1228.00
2018-05-26T04:13:08.028Z,1236.00
2018-05-26T04:14:07.962Z,1256.00
2018-05-26T04:15:07.866Z,1268.00
2018-05-26T04:16:07.792Z,1280.00
2018-05-26T04:17:07.717Z,1296.00
2018-05-26T04:18:07.628Z,1312.00
2018-05-26T04:19:07.553Z,1328.00
2018-05-26T04:20:07.479Z,1344.00
2018-05-26T04:21:07.393Z,1364.00
2018-05-26T04:22:07.318Z,1384.00
2018-05-26T04:23:07.247Z,1400.00
2018-05-26T04:24:07.155Z,1420.00
2018-05-26T04:25:07.080Z,1444.00
2018-05-26T04:26:07.018Z,1476.00
2018-05-26T04:27:06.929Z,1504.00
2018-05-26T04:28:06.871Z,1532.00
2018-05-26T04:29:06.772Z,1560.00
2018-05-26T04:30:06.694Z,1560.00
2018-05-26T04:31:06.618Z,1680.00
2018-05-26T04:32:06.529Z,1860.00
2018-05-26T04:33:06.455Z,1840.00
2018-05-26T04:34:06.380Z,1788.00
2018-05-26T04:35:06.294Z,1852.00
2018-05-26T04:36:06.220Z,2048.00
2018-05-26T04:37:06.151Z,2312.00
2018-05-26T04:38:06.056Z,2116.00
2018-05-26T04:39:05.981Z,2192.00
2018-05-26T04:40:05.919Z,2100.00
2018-05-26T04:41:05.831Z,2188.00
2018-05-26T04:42:05.744Z,2264.00
2018-05-26T04:43:05.670Z,2100.00
2018-05-26T04:44:05.595Z,2128.00
2018-05-26T04:45:05.520Z,2000.00
2018-05-26T04:46:05.431Z,2076.00
2018-05-26T04:47:05.357Z,2184.00
2018-05-26T04:48:05.282Z,2236.00
2018-05-26T04:49:05.196Z,2516.00
2018-05-26T04:50:05.123Z,2420.00
2018-05-26T04:51:05.055Z,2140.00
2018-05-26T04:52:04.970Z,2044.00
2018-05-26T04:53:04.898Z,2012.00
2018-05-26T04:54:04.807Z,1976.00
2018-05-26T04:55:04.732Z,1972.00
2018-05-26T04:56:04.661Z,1992.00
2018-05-26T04:57:04.582Z,2032.00
2018-05-26T04:58:04.496Z,2048.00
2018-05-26T04:59:04.422Z,2076.00
2018-05-26T05:00:04.351Z,2100.00
2018-05-26T05:01:04.271Z,2116.00
2018-05-26T05:02:04.195Z,2148.00
2018-05-26T05:03:04.111Z,2176.00
2018-05-26T05:04:04.034Z,2180.00
2018-05-26T05:05:03.958Z,2204.00
2018-05-26T05:06:03.884Z,2228.00
2018-05-26T05:07:03.808Z,2272.00
2018-05-26T05:08:03.733Z,2344.00
2018-05-26T05:09:03.647Z,2404.00
2018-05-26T05:10:03.572Z,2444.00
2018-05-26T05:11:03.497Z,2468.00
2018-05-26T05:12:03.426Z,2476.00
2018-05-26T05:13:03.334Z,2484.00
2018-05-26T05:14:03.259Z,2496.00
2018-05-26T05:15:03.186Z,2488.00
2018-05-26T05:16:03.109Z,2472.00
2018-05-26T05:17:03.035Z,2480.00
2018-05-26T05:18:02.952Z,2484.00
2018-05-26T05:19:02.873Z,2488.00
2018-05-26T05:20:02.798Z,2512.00
2018-05-26T05:21:02.727Z,2540.00
2018-05-26T05:22:02.649Z,2568.00
2018-05-26T05:23:02.562Z,2588.00
2018-05-26T05:24:02.485Z,2604.00
2018-05-26T05:25:02.414Z,2612.00
2018-05-26T05:26:02.336Z,2660.00
2018-05-26T05:27:02.275Z,2676.00
2018-05-26T05:28:02.175Z,2688.00
2018-05-26T05:29:02.100Z,2620.00
2018-05-26T05:30:02.036Z,2616.00
2018-05-26T05:31:01.950Z,2616.00
2018-05-26T05:32:01.875Z,2624.00
2018-05-26T05:33:01.789Z,2632.00
2018-05-26T05:34:01.713Z,2628.00
2018-05-26T05:35:01.637Z,2620.00
2018-05-26T05:36:01.576Z,2616.00
2018-05-26T05:37:01.490Z,2612.00
2018-05-26T05:38:01.411Z,2620.00
2018-05-26T05:39:01.341Z,2624.00
2018-05-26T05:40:01.249Z,2632.00
2018-05-26T05:41:01.176Z,2640.00
2018-05-26T05:42:01.102Z,2644.00
2018-05-26T05:43:01.026Z,2788.00
2018-05-26T05:44:00.939Z,2700.00
2018-05-26T05:45:00.863Z,2692.00
2018-05-26T05:46:01.038Z,2724.00
2018-05-26T05:47:00.714Z,2684.00
2018-05-26T05:48:00.638Z,2700.00
2018-05-26T05:49:00.563Z,2724.00
2018-05-26T05:50:00.478Z,2756.00
2018-05-26T05:51:00.401Z,2728.00
2018-05-26T05:52:00.327Z,2744.00
2018-05-26T05:53:00.252Z,2752.00
2018-05-26T05:54:00.178Z,2768.00
2018-05-26T05:55:00.103Z,2792.00
2018-05-26T05:56:00.014Z,2816.00
2018-05-26T05:56:59.939Z,2824.00
2018-05-26T05:57:59.864Z,2844.00
2018-05-26T05:58:59.789Z,2864.00
2018-05-26T05:59:59.715Z,2884.00
2018-05-26T06:00:59.928Z,2896.00
2018-05-26T06:01:59.553Z,2904.00
2018-05-26T06:02:59.481Z,2904.00
2018-05-26T06:03:59.403Z,2888.00
2018-05-26T06:04:59.329Z,2896.00
2018-05-26T06:05:59.272Z,2884.00
2018-05-26T06:06:59.167Z,2892.00
2018-05-26T06:07:59.090Z,2900.00
2018-05-26T06:08:59.016Z,2900.00
2018-05-26T06:09:58.941Z,2900.00
2018-05-26T06:10:59.116Z,2960.00
2018-05-26T06:11:58.792Z,2916.00
2018-05-26T06:12:58.704Z,2908.00
2018-05-26T06:13:58.630Z,2924.00
2018-05-26T06:14:58.607Z,2904.00
2018-05-26T06:15:58.481Z,2900.00
2018-05-26T06:16:58.405Z,2912.00
2018-05-26T06:17:58.330Z,2912.00
2018-05-26T06:18:58.255Z,2912.00
2018-05-26T06:19:58.167Z,2936.00
2018-05-26T06:20:58.093Z,2936.00
2018-05-26T06:21:58.018Z,2936.00
2018-05-26T06:22:57.946Z,2944.00
2018-05-26T06:23:57.868Z,2952.00
2018-05-26T06:24:57.782Z,2964.00
2018-05-26T06:25:57.706Z,2968.00
2018-05-26T06:26:57.631Z,2972.00
2018-05-26T06:27:57.557Z,2984.00
2018-05-26T06:28:57.484Z,2996.00
2018-05-26T06:29:57.407Z,3020.00
2018-05-26T06:30:57.331Z,3032.00
2018-05-26T06:31:57.266Z,3064.00
2018-05-26T06:32:57.168Z,3084.00
2018-05-26T06:33:57.094Z,3112.00
2018-05-26T06:34:57.019Z,3136.00
2018-05-26T06:35:57.000Z,3160.00
2018-05-26T06:36:56.869Z,3196.00
2018-05-26T06:37:56.785Z,3228.00
2018-05-26T06:38:56.707Z,3248.00
2018-05-26T06:39:56.632Z,3292.00
2018-05-26T06:40:56.558Z,3328.00
2018-05-26T06:41:56.486Z,3384.00
2018-05-26T06:42:56.408Z,3436.00
2018-05-26T06:43:56.333Z,3504.00
2018-05-26T06:44:56.266Z,3556.00
2018-05-26T06:45:56.170Z,3608.00
2018-05-26T06:46:56.095Z,3660.00
2018-05-26T06:47:56.019Z,3712.00
2018-05-26T06:48:55.958Z,3760.00
2018-05-26T06:49:55.877Z,3828.00
2018-05-26T06:50:55.795Z,3888.00
2018-05-26T06:51:55.723Z,3952.00
2018-05-26T06:52:55.649Z,4012.00
2018-05-26T06:53:55.559Z,4056.00
2018-05-26T06:54:55.489Z,4108.00
2018-05-26T06:55:55.409Z,4140.00
2018-05-26T06:56:55.336Z,4184.00
2018-05-26T06:57:55.259Z,4224.00
2018-05-26T06:58:55.186Z,4260.00
2018-05-26T06:59:55.110Z,4304.00
2018-05-26T07:00:55.286Z,4368.00
2018-05-26T07:01:54.960Z,4576.00
2018-05-26T07:02:54.875Z,4452.00
2018-05-26T07:03:54.797Z,4524.00
2018-05-26T07:04:54.722Z,4600.00
2018-05-26T07:05:54.646Z,4740.00
2018-05-26T07:06:54.575Z,6272.00
2018-05-26T07:07:54.500Z,6008.00
2018-05-26T07:08:54.422Z,5376.00
2018-05-26T07:09:54.347Z,9600.00
2018-05-26T07:10:54.272Z,8696.00
2018-05-26T07:11:54.198Z,26720.00
2018-05-26T07:12:54.122Z,70528.00
2018-05-26T07:13:54.049Z,102560.00
2018-05-26T07:14:53.976Z,79232.00
2018-05-26T07:15:53.887Z,39040.00
2018-05-26T07:16:53.812Z,12564.00
2018-05-26T07:17:53.740Z,30112.00
2018-05-26T07:18:53.661Z,18144.00
2018-05-26T07:19:53.587Z,24384.00
2018-05-26T07:20:53.761Z,72992.00
2018-05-26T07:21:53.437Z,68352.00
2018-05-26T07:22:53.362Z,64128.00
2018-05-26T07:23:53.291Z,51872.00
2018-05-26T07:24:53.223Z,44544.00
2018-05-26T07:25:53.149Z,40704.00
2018-05-26T07:26:53.074Z,37376.00
2018-05-26T07:27:53.044Z,32192.00
2018-05-26T07:28:52.924Z,27520.00
2018-05-26T07:29:52.849Z,25216.00
2018-05-26T07:30:52.774Z,23968.00
2018-05-26T07:31:52.701Z,23680.00
2018-05-26T07:32:52.624Z,22464.00
2018-05-26T07:33:52.551Z,20384.00
2018-05-26T07:34:52.488Z,19136.00
2018-05-26T07:35:52.416Z,18752.00
2018-05-26T07:36:52.338Z,18240.00
2018-05-26T07:37:52.275Z,17856.00
2018-05-26T07:38:52.213Z,18208.00
2018-05-26T07:39:52.125Z,18560.00
2018-05-26T07:40:52.051Z,17440.00
2018-05-26T07:41:51.976Z,16384.00
2018-05-26T07:42:51.913Z,16036.00
2018-05-26T07:43:51.839Z,16040.00
2018-05-26T07:44:51.775Z,16004.00
2018-05-26T07:45:51.715Z,15052.00
2018-05-26T07:46:51.627Z,14132.00
2018-05-26T07:47:51.564Z,13704.00
2018-05-26T07:48:51.491Z,13652.00
2018-05-26T07:49:51.427Z,14064.00
2018-05-26T07:50:51.352Z,15880.00
2018-05-26T07:51:51.291Z,16000.00
2018-05-26T07:52:51.215Z,13740.00
2018-05-26T07:53:51.152Z,12848.00
2018-05-26T07:54:51.077Z,12028.00
2018-05-26T07:55:51.016Z,11700.00
2018-05-26T07:56:50.952Z,11696.00
2018-05-26T07:57:50.877Z,11028.00
2018-05-26T07:58:50.855Z,10252.00
2018-05-26T07:59:50.742Z,9872.00
2018-05-26T08:00:50.677Z,9964.00
2018-05-26T08:01:50.617Z,10260.00
2018-05-26T08:02:50.541Z,9972.00
2018-05-26T08:03:50.477Z,8888.00
2018-05-26T08:04:50.416Z,8032.00
2018-05-26T08:05:50.348Z,7572.00
2018-05-26T08:06:50.278Z,7496.00
2018-05-26T08:07:50.221Z,7488.00
2018-05-26T08:08:50.166Z,7476.00
2018-05-26T08:09:50.079Z,7488.00
2018-05-26T08:10:50.030Z,7500.00
2018-05-26T08:11:49.957Z,7496.00
2018-05-26T08:12:49.880Z,7516.00
2018-05-26T08:13:49.817Z,7548.00
2018-05-26T08:14:49.756Z,7576.00
2018-05-26T08:15:49.693Z,7592.00
2018-05-26T08:16:49.618Z,7608.00
2018-05-26T08:17:49.555Z,7648.00
2018-05-26T08:18:49.493Z,7700.00
2018-05-26T08:19:49.431Z,7728.00
2018-05-26T08:20:49.360Z,7808.00
2018-05-26T08:21:49.293Z,7892.00
2018-05-26T08:22:49.230Z,8000.00
2018-05-26T08:23:49.168Z,8192.00
2018-05-26T08:24:49.105Z,8348.00
2018-05-26T08:25:49.032Z,8440.00
2018-05-26T08:26:48.969Z,8540.00
2018-05-26T08:27:48.906Z,8660.00
2018-05-26T08:28:48.844Z,8740.00
2018-05-26T08:29:48.780Z,8844.00
2018-05-26T08:30:48.720Z,8884.00
2018-05-26T08:31:48.645Z,8984.00
2018-05-26T08:32:48.581Z,9084.00
2018-05-26T08:33:48.531Z,9180.00
2018-05-26T08:34:48.456Z,9284.00
2018-05-26T08:35:48.398Z,9352.00
2018-05-26T08:36:48.345Z,9440.00
2018-05-26T08:37:48.275Z,9500.00
2018-05-26T08:38:48.208Z,9644.00
2018-05-26T08:39:48.145Z,9796.00
2018-05-26T08:40:48.078Z,9928.00
2018-05-26T08:41:48.007Z,10060.00
2018-05-26T08:42:47.945Z,10220.00
2018-05-26T08:43:47.883Z,10292.00
2018-05-26T08:44:47.821Z,10460.00
2018-05-26T08:45:47.758Z,10664.00
2018-05-26T08:46:47.696Z,10788.00
2018-05-26T08:47:47.635Z,10888.00
2018-05-26T08:48:47.573Z,11076.00
2018-05-26T08:49:47.508Z,11260.00
2018-05-26T08:50:47.447Z,11456.00
2018-05-26T08:51:47.375Z,11588.00
2018-05-26T08:52:47.315Z,11872.00
2018-05-26T08:53:47.251Z,12064.00
2018-05-26T08:54:47.203Z,12220.00
2018-05-26T08:55:47.121Z,12384.00
2018-05-26T08:56:47.059Z,12584.00
2018-05-26T08:57:46.997Z,12780.00
2018-05-26T08:58:46.948Z,12888.00
2018-05-26T08:59:46.932Z,13176.00
2018-05-26T09:00:46.810Z,13408.00
2018-05-26T09:01:46.748Z,13648.00
2018-05-26T09:02:46.685Z,13768.00
2018-05-26T09:03:46.623Z,13992.00
2018-05-26T09:04:46.561Z,14208.00
2018-05-26T09:05:46.499Z,14368.00
2018-05-26T09:06:46.453Z,14484.00
2018-05-26T09:07:46.385Z,14636.00
2018-05-26T09:08:46.310Z,14876.00
2018-05-26T09:09:46.248Z,15124.00
2018-05-26T09:10:46.185Z,15428.00
2018-05-26T09:11:46.124Z,15636.00
2018-05-26T09:12:46.060Z,15952.00
2018-05-26T09:13:45.999Z,16212.00
2018-05-26T09:14:45.949Z,16512.00
2018-05-26T09:15:45.876Z,16672.00
2018-05-26T09:16:45.811Z,17024.00
2018-05-26T09:17:45.750Z,17568.00
2018-05-26T09:18:45.738Z,18848.00
2018-05-26T09:19:45.624Z,21408.00
2018-05-26T09:20:45.561Z,23616.00
2018-05-26T09:21:45.554Z,24672.00
2018-05-26T09:22:45.437Z,24320.00
2018-05-26T09:23:45.375Z,23776.00
2018-05-26T09:24:45.312Z,23488.00
2018-05-26T09:25:45.250Z,23584.00
2018-05-26T09:26:45.187Z,23648.00
2018-05-26T09:27:45.126Z,24064.00
2018-05-26T09:28:45.063Z,25504.00
2018-05-26T09:29:45.001Z,29088.00
2018-05-26T09:30:44.938Z,29568.00
2018-05-26T09:31:44.876Z,24576.00
2018-05-26T09:32:44.813Z,17568.00
2018-05-26T09:33:44.751Z,17024.00
2018-05-26T09:34:44.688Z,12808.00
2018-05-26T09:35:44.627Z,7960.00
2018-05-26T09:36:44.564Z,6460.00
2018-05-26T09:37:44.502Z,6600.00
2018-05-26T09:38:44.439Z,6792.00
2018-05-26T09:39:44.377Z,6280.00
2018-05-26T09:40:44.314Z,8676.00
2018-05-26T09:41:44.253Z,6460.00
2018-05-26T09:42:44.204Z,6056.00
2018-05-26T09:43:44.185Z,5932.00
2018-05-26T09:44:44.064Z,5916.00
2018-05-26T09:45:44.002Z,5876.00
2018-05-26T09:46:43.939Z,5888.00
2018-05-26T09:47:43.878Z,5868.00
2018-05-26T09:48:43.814Z,6108.00
2018-05-26T09:49:43.740Z,7412.00
2018-05-26T09:50:43.678Z,8544.00
2018-05-26T09:51:43.616Z,6908.00
2018-05-26T09:52:43.554Z,6196.00
2018-05-26T09:53:43.503Z,6240.00
2018-05-26T09:54:43.418Z,6372.00
2018-05-26T09:55:43.365Z,11268.00
2018-05-26T09:56:43.304Z,20032.00
2018-05-26T09:57:43.229Z,21248.00
2018-05-26T09:58:43.165Z,20960.00
2018-05-26T09:59:43.104Z,14864.00
2018-05-26T10:00:43.029Z,7136.00
2018-05-26T10:01:42.966Z,8064.00
2018-05-26T10:02:42.908Z,6580.00
2018-05-26T10:03:42.829Z,5864.00
2018-05-26T10:04:42.766Z,6056.00
2018-05-26T10:05:42.707Z,5956.00
2018-05-26T10:06:42.636Z,5424.00
2018-05-26T10:07:42.567Z,5820.00
2018-05-26T10:08:42.504Z,5932.00
2018-05-26T10:09:42.430Z,6196.00
2018-05-26T10:10:42.367Z,6716.00
2018-05-26T10:11:42.308Z,6784.00
2018-05-26T10:12:42.231Z,6804.00
2018-05-26T10:13:42.173Z,6876.00
2018-05-26T10:14:42.106Z,7112.00
2018-05-26T10:15:42.031Z,6872.00
2018-05-26T10:16:41.968Z,8028.00
2018-05-26T10:17:41.906Z,7304.00
2018-05-26T10:18:41.831Z,8304.00
2018-05-26T10:19:41.767Z,8328.00
2018-05-26T10:20:41.707Z,8336.00
2018-05-26T10:21:41.631Z,7328.00
2018-05-26T10:22:41.568Z,7112.00
2018-05-26T10:23:41.510Z,7108.00
2018-05-26T10:24:41.432Z,7532.00
2018-05-26T10:25:41.369Z,7536.00
2018-05-26T10:26:41.294Z,8352.00
2018-05-26T10:27:41.232Z,8420.00
2018-05-26T10:28:41.156Z,8824.00
2018-05-26T10:29:41.108Z,8784.00
2018-05-26T10:30:41.020Z,8124.00
2018-05-26T10:31:40.983Z,7768.00
2018-05-26T10:32:40.882Z,7436.00
2018-05-26T10:33:40.820Z,7452.00
2018-05-26T10:34:40.758Z,7952.00
2018-05-26T10:35:40.683Z,9280.00
2018-05-26T10:36:40.620Z,9116.00
2018-05-26T10:37:40.545Z,8084.00
2018-05-26T10:38:40.483Z,7300.00
2018-05-26T10:39:40.409Z,7748.00
2018-05-26T10:40:40.345Z,9856.00
2018-05-26T10:41:40.270Z,13472.00
2018-05-26T10:42:40.208Z,15612.00
2018-05-26T10:43:40.139Z,26176.00
2018-05-26T10:44:40.073Z,30400.00
2018-05-26T10:45:39.995Z,31648.00
2018-05-26T10:46:39.935Z,32352.00
2018-05-26T10:47:39.860Z,28352.00
2018-05-26T10:48:39.795Z,31680.00
2018-05-26T10:49:39.722Z,28192.00
2018-05-26T10:50:39.659Z,35264.00
2018-05-26T10:51:39.596Z,28512.00
2018-05-26T10:52:39.534Z,31904.00
2018-05-26T10:53:39.459Z,34208.00
2018-05-26T10:54:39.396Z,34592.00
2018-05-26T10:55:39.335Z,34112.00
2018-05-26T10:56:39.272Z,33984.00
2018-05-26T10:57:39.210Z,33920.00
2018-05-26T10:58:39.147Z,25600.00
2018-05-26T10:59:39.074Z,9532.00
2018-05-26T11:00:39.011Z,9372.00
2018-05-26T11:01:38.948Z,8272.00
2018-05-26T11:02:38.886Z,7620.00
2018-05-26T11:03:38.824Z,7140.00
2018-05-26T11:04:38.761Z,6584.00
2018-05-26T11:05:38.697Z,6604.00
2018-05-26T11:06:38.639Z,7372.00
2018-05-26T11:07:38.575Z,8376.00
2018-05-26T11:08:38.514Z,9628.00
2018-05-26T11:09:38.437Z,12484.00
2018-05-26T11:10:38.375Z,35552.00
2018-05-26T11:11:38.312Z,35584.00
2018-05-26T11:12:38.249Z,35872.00
2018-05-26T11:13:38.186Z,35936.00
2018-05-26T11:14:38.147Z,36288.00
2018-05-26T11:15:38.094Z,37696.00
2018-05-26T11:16:37.987Z,39904.00
2018-05-26T11:17:37.983Z,40928.00
2018-05-26T11:18:37.862Z,41216.00
2018-05-26T11:19:37.800Z,42176.00
2018-05-26T11:20:37.737Z,43104.00
2018-05-26T11:21:37.690Z,44352.00
2018-05-26T11:22:37.615Z,44640.00
2018-05-26T11:23:37.568Z,45824.00
2018-05-26T11:24:37.580Z,46368.00
2018-05-26T11:25:37.462Z,48000.00
2018-05-26T11:26:37.351Z,49248.00
2018-05-26T11:27:37.289Z,49792.00
2018-05-26T11:28:37.227Z,51232.00
2018-05-26T11:29:37.198Z,52288.00
2018-05-26T11:30:37.114Z,54208.00
2018-05-26T11:31:37.050Z,56416.00
2018-05-26T11:32:36.989Z,56480.00
2018-05-26T11:33:36.926Z,55360.00
2018-05-26T11:34:36.865Z,56960.00
2018-05-26T11:35:36.801Z,55904.00
2018-05-26T11:36:36.743Z,16740.00
2018-05-26T11:37:36.676Z,17092.00
2018-05-26T11:38:36.621Z,61024.00
2018-05-26T11:39:36.551Z,62752.00
2018-05-26T11:40:36.501Z,13924.00
2018-05-26T11:41:36.440Z,60160.00
2018-05-26T11:42:36.390Z,64352.00
2018-05-26T11:43:36.325Z,15152.00
2018-05-26T11:44:36.254Z,36416.00
2018-05-26T11:45:36.191Z,10308.00
2018-05-26T11:46:36.127Z,13700.00
2018-05-26T11:47:36.066Z,26688.00
2018-05-26T11:48:36.003Z,64448.00
2018-05-26T11:49:35.940Z,63104.00
2018-05-26T11:50:35.878Z,26848.00
2018-05-26T11:51:35.816Z,53408.00
2018-05-26T11:52:35.766Z,68064.00
2018-05-26T11:53:35.703Z,17696.00
2018-05-26T11:54:35.641Z,48320.00
2018-05-26T11:55:35.577Z,68064.00
2018-05-26T11:56:35.516Z,8040.00
2018-05-26T11:57:35.454Z,6844.00
2018-05-26T11:58:35.393Z,6984.00
2018-05-26T11:59:35.345Z,20224.00
2018-05-26T12:00:35.267Z,63680.00
2018-05-26T12:01:35.205Z,50560.00
2018-05-26T12:02:35.142Z,27680.00
2018-05-26T12:03:35.079Z,6168.00
2018-05-26T12:04:35.018Z,6496.00
2018-05-26T12:05:34.956Z,7716.00
2018-05-26T12:06:34.897Z,7732.00
2018-05-26T12:07:34.817Z,7552.00
2018-05-26T12:08:34.755Z,22112.00
2018-05-26T12:09:34.693Z,66368.00
2018-05-26T12:10:34.629Z,67776.00
2018-05-26T12:11:34.569Z,68928.00
2018-05-26T12:12:34.505Z,69760.00
2018-05-26T12:13:34.442Z,71008.00
2018-05-26T12:14:34.380Z,71680.00
2018-05-26T12:16:16.443Z,70944.00
2018-05-26T12:17:16.381Z,72064.00